Terminal Aerodrome Forecast
Issued by NWS

Home | Current Version | Previous Version | Text Only | Print | Product List | Glossary On
Versions: 1 2 3 4 5 6 7 8 9 10 11 12 13 14 15 16
000
FTUS41 KCAR 200413 AAA
TAFFVE
TAF AMD
KFVE 200413Z 2004/2024 26010KT P6SM VCSH BKN050
      TEMPO 2004/2006 6SM -SHRA OVC040
     FM200800 28010KT P6SM SCT200
     FM201400 30018G28KT P6SM FEW060 SCT250=

USA.gov is the U.S. government's official web portal to all federal, state and local government web resources and services.